Time;durP1;ratioP1;P1;durP2;ratioP2;P2;SDS_P1;SDS_P2;PMS_P1;PMS_P2;Temp;Humidity;BMP_temperature;BMP_pressure;BME280_temperature;BME280_humidity;BME280_pressure;Samples;Min_cycle;Max_cycle;Signal;HPM_P1;HPM_P2
2023/07/20 00:00:03;;;;;;;6.97;2.00;;;;;;;23.03;100.00;100866.44;2081502;28;20212;-67
2023/07/20 00:01:04;;;;;;;7.97;2.10;;;;;;;23.03;100.00;100867.19;2081937;28;20248;-67
2023/07/20 00:02:05;;;;;;;5.03;1.80;;;;;;;23.00;100.00;100865.41;2083215;28;20169;-67
2023/07/20 00:03:18;;;;;;;7.23;2.10;;;;;;;22.95;100.00;100868.19;2078002;28;20193;-66
2023/07/20 00:04:19;;;;;;;8.87;1.70;;;;;;;22.91;100.00;100871.28;2075041;28;20158;-68
2023/07/20 00:05:21;;;;;;;7.47;2.00;;;;;;;22.87;100.00;100867.94;2079383;28;20693;-66
2023/07/20 00:06:22;;;;;;;7.30;2.30;;;;;;;22.89;100.00;100862.56;2083184;28;20646;-67
2023/07/20 00:07:24;;;;;;;10.43;2.13;;;;;;;22.86;100.00;100859.97;2083248;28;20173;-66
2023/07/20 00:08:25;;;;;;;8.83;2.10;;;;;;;22.86;100.00;100866.41;2083219;28;20226;-67
2023/07/20 00:09:25;;;;;;;4.70;1.67;;;;;;;22.90;100.00;100857.66;2083132;28;20234;-68
2023/07/20 00:10:25;;;;;;;4.73;1.70;;;;;;;22.91;100.00;100868.47;2083158;28;20264;-67
2023/07/20 00:11:27;;;;;;;7.60;2.10;;;;;;;22.87;100.00;100867.19;2083177;28;20553;-66
2023/07/20 00:12:28;;;;;;;4.23;1.53;;;;;;;22.58;100.00;100833.72;2083175;28;20183;-67
2023/07/20 00:13:28;;;;;;;7.97;1.70;;;;;;;22.79;100.00;100863.28;2083173;28;20173;-67
2023/07/20 00:14:29;;;;;;;5.40;1.80;;;;;;;22.80;100.00;100868.44;2083213;28;20267;-67
2023/07/20 00:15:29;;;;;;;5.70;1.63;;;;;;;22.82;100.00;100862.28;2083154;28;20535;-67
2023/07/20 00:16:29;;;;;;;4.37;1.57;;;;;;;22.84;100.00;100860.50;2083166;28;20631;-66
2023/07/20 00:17:30;;;;;;;5.50;1.80;;;;;;;22.88;100.00;100865.91;2083016;28;20205;-67
2023/07/20 00:18:30;;;;;;;15.63;1.50;;;;;;;22.92;100.00;100869.25;2085989;28;20188;-66
2023/07/20 00:19:32;;;;;;;8.83;1.77;;;;;;;22.96;100.00;100867.69;2091421;28;20176;-66
2023/07/20 00:20:32;;;;;;;8.10;1.83;;;;;;;22.94;100.00;100863.84;2091303;28;20180;-67
2023/07/20 00:21:33;;;;;;;8.67;1.93;;;;;;;22.81;100.00;100850.19;2091335;28;20172;-66
2023/07/20 00:22:33;;;;;;;9.43;2.10;;;;;;;22.91;100.00;100865.63;2091319;28;20176;-67
2023/07/20 00:23:34;;;;;;;9.63;1.90;;;;;;;22.93;100.00;100856.66;2091345;28;20184;-66
2023/07/20 00:24:34;;;;;;;4.60;1.60;;;;;;;22.94;100.00;100858.19;2087026;28;20181;-66
2023/07/20 00:25:35;;;;;;;6.73;1.70;;;;;;;22.95;100.00;100859.72;2084327;28;20177;-66
2023/07/20 00:26:35;;;;;;;3.77;1.60;;;;;;;22.98;100.00;100853.06;2090641;28;20754;-67
2023/07/20 00:27:36;;;;;;;5.93;1.83;;;;;;;22.96;100.00;100849.97;2090661;28;20614;-66
2023/07/20 00:28:36;;;;;;;4.20;1.47;;;;;;;22.19;100.00;100743.25;2091278;28;20314;-66
2023/07/20 00:29:36;;;;;;;8.93;2.10;;;;;;;22.82;100.00;100851.75;2091233;28;20168;-67
2023/07/20 00:30:38;;;;;;;10.60;2.47;;;;;;;22.82;100.00;100836.84;2091222;28;20254;-66
2023/07/20 00:31:38;;;;;;;4.87;1.80;;;;;;;22.78;100.00;100836.34;2091332;28;20654;-66
2023/07/20 00:32:39;;;;;;;12.43;2.20;;;;;;;22.74;100.00;100838.63;2091313;28;20573;-67
2023/07/20 00:33:39;;;;;;;7.33;2.30;;;;;;;22.77;100.00;100837.63;2091274;28;20259;-67
2023/07/20 00:34:39;;;;;;;7.97;2.23;;;;;;;22.77;100.00;100829.91;2091236;28;20674;-66
2023/07/20 00:35:40;;;;;;;9.13;1.70;;;;;;;22.74;100.00;100822.47;2091174;28;20653;-66
2023/07/20 00:36:41;;;;;;;6.83;1.87;;;;;;;22.79;100.00;100816.06;2091252;28;20559;-66
2023/07/20 00:37:41;;;;;;;8.63;2.27;;;;;;;22.74;100.00;100822.47;2088620;28;20232;-67
2023/07/20 00:38:42;;;;;;;9.07;2.40;;;;;;;22.74;100.00;100821.69;2082995;28;20647;-66
2023/07/20 00:39:43;;;;;;;10.33;2.17;;;;;;;22.71;100.00;100820.66;2082958;28;20185;-67
2023/07/20 00:40:43;;;;;;;5.57;1.87;;;;;;;22.65;100.00;100821.91;2082961;28;20177;-66
2023/07/20 00:41:43;;;;;;;9.33;2.27;;;;;;;22.66;100.00;100820.63;2082812;28;20185;-66
2023/07/20 00:42:44;;;;;;;5.40;1.97;;;;;;;22.69;100.00;100825.25;2082934;28;20211;-66
2023/07/20 00:43:45;;;;;;;6.07;1.70;;;;;;;22.70;100.00;100821.16;2082958;28;20169;-66
2023/07/20 00:44:45;;;;;;;5.03;1.80;;;;;;;22.73;100.00;100818.06;2082658;28;20243;-66
2023/07/20 00:45:46;;;;;;;4.87;1.87;;;;;;;22.76;100.00;100817.06;2082800;28;20261;-66
2023/07/20 00:46:47;;;;;;;10.43;2.10;;;;;;;22.77;100.00;100821.41;2082917;28;20169;-66
2023/07/20 00:47:48;;;;;;;6.83;2.07;;;;;;;22.79;100.00;100826.56;2082846;28;20169;-66
2023/07/20 00:48:48;;;;;;;6.10;1.93;;;;;;;22.75;100.00;100814.75;2082686;28;20169;-66
2023/07/20 00:49:51;;;;;;;4.77;1.50;;;;;;;22.79;100.00;100809.63;2082845;28;20201;-66
2023/07/20 00:50:52;;;;;;;5.83;1.50;;;;;;;22.82;100.00;100809.34;2082972;28;20165;-66
2023/07/20 00:51:52;;;;;;;6.27;2.10;;;;;;;22.83;100.00;100815.78;2082919;28;20173;-66
2023/07/20 00:52:53;;;;;;;5.50;1.70;;;;;;;22.83;100.00;100808.06;2082817;28;20222;-66
2023/07/20 00:53:54;;;;;;;5.13;1.80;;;;;;;22.79;100.00;100807.56;2082845;28;20731;-66
2023/07/20 00:54:56;;;;;;;6.00;1.80;;;;;;;22.43;100.00;100749.19;2082809;28;20175;-67
2023/07/20 00:55:56;;;;;;;3.93;1.77;;;;;;;22.81;100.00;100813.47;2082795;28;20172;-66
2023/07/20 00:56:58;;;;;;;5.03;1.73;;;;;;;22.82;100.00;100815.00;2082791;28;20169;-67
2023/07/20 00:57:59;;;;;;;9.73;2.50;;;;;;;22.76;100.00;100800.09;2090414;28;20168;-66
2023/07/20 00:59:00;;;;;;;6.80;1.73;;;;;;;22.32;100.00;100732.22;2090349;28;20173;-66
2023/07/20 01:00:01;;;;;;;5.90;1.80;;;;;;;22.80;100.00;100797.03;2082819;28;20177;-66
2023/07/20 01:01:01;;;;;;;4.83;1.50;;;;;;;22.75;100.00;100784.44;2082938;28;20166;-66
2023/07/20 01:02:02;;;;;;;4.93;1.77;;;;;;;22.83;100.00;100796.00;2082777;28;20184;-66
2023/07/20 01:03:03;;;;;;;6.67;1.90;;;;;;;22.80;100.00;100803.47;2082741;28;20260;-66
2023/07/20 01:04:04;;;;;;;5.47;1.70;;;;;;;22.75;100.00;100803.44;2082694;28;20647;-66
2023/07/20 01:05:06;;;;;;;7.43;2.07;;;;;;;22.73;100.00;100814.50;2082732;28;20197;-66
2023/07/20 01:06:21;;;;;;;7.73;1.97;;;;;;;22.69;100.00;100813.97;2082894;28;20173;-66
2023/07/20 01:08:07;;;;;;;5.00;2.07;;;;;;;22.67;100.00;100819.38;2082779;28;20180;-66
2023/07/20 01:09:28;;;;;;;6.20;1.80;;;;;;;22.60;100.00;100811.38;2082779;28;20157;-66
2023/07/20 01:10:45;;;;;;;7.13;2.00;;;;;;;22.59;100.00;100810.63;2083011;28;20161;-66
2023/07/20 01:12:02;;;;;;;5.63;1.90;;;;;;;22.52;100.00;100813.94;2082744;28;20234;-66
2023/07/20 01:13:06;;;;;;;5.00;1.60;;;;;;;22.48;100.00;100813.44;2081800;28;20165;-66
2023/07/20 01:14:07;;;;;;;5.20;1.67;;;;;;;22.46;100.00;100818.03;2082722;28;20177;-66
2023/07/20 01:15:08;;;;;;;9.07;1.73;;;;;;;22.45;100.00;100810.81;2082676;28;20173;-66
2023/07/20 01:16:09;;;;;;;8.00;1.70;;;;;;;22.47;100.00;100817.50;2082443;28;20580;-66
2023/07/20 01:17:09;;;;;;;6.33;2.00;;;;;;;22.49;100.00;100814.97;2082597;28;20201;-66
2023/07/20 01:18:10;;;;;;;5.23;1.80;;;;;;;22.48;100.00;100816.25;2082732;28;20247;-66
2023/07/20 01:19:10;;;;;;;6.63;1.60;;;;;;;22.46;100.00;100823.69;2082688;28;20593;-66
2023/07/20 01:20:14;;;;;;;6.90;1.87;;;;;;;22.47;100.00;100828.81;2082817;28;20204;-66
2023/07/20 01:21:23;;;;;;;7.50;2.17;;;;;;;22.46;100.00;100832.16;2082698;28;20184;-66
2023/07/20 01:22:42;;;;;;;6.60;1.70;;;;;;;22.49;100.00;100831.13;2082683;28;20568;-67
2023/07/20 01:24:05;;;;;;;9.10;2.00;;;;;;;22.48;100.00;100816.25;2082729;28;20801;-66
2023/07/20 01:25:42;;;;;;;3.70;1.60;;;;;;;22.47;100.00;100822.41;2082792;28;20955;-66
2023/07/20 01:27:14;;;;;;;6.47;2.10;;;;;;;22.45;100.00;100822.91;2082543;28;20415;-66
2023/07/20 01:28:23;;;;;;;5.77;1.50;;;;;;;22.47;100.00;100822.41;2082625;28;20161;-66
2023/07/20 01:30:00;;;;;;;4.67;1.73;;;;;;;22.45;100.00;100827.75;2082662;28;20196;-66
2023/07/20 01:31:19;;;;;;;5.83;1.70;;;;;;;22.43;100.00;100825.44;2082572;28;20188;-66
2023/07/20 01:32:23;;;;;;;9.00;1.87;;;;;;;22.41;100.00;100828.00;2082492;28;20647;-66
2023/07/20 01:33:25;;;;;;;6.60;1.60;;;;;;;22.33;100.00;100826.16;2082544;28;20177;-66
2023/07/20 01:34:27;;;;;;;6.70;2.10;;;;;;;21.68;100.00;100726.63;2082695;28;20173;-66
2023/07/20 01:35:30;;;;;;;8.57;1.80;;;;;;;22.36;100.00;100817.44;2082551;28;20173;-66
2023/07/20 01:36:34;;;;;;;6.87;1.97;;;;;;;22.40;100.00;100826.44;2082574;28;20662;-66
2023/07/20 01:37:37;;;;;;;5.77;1.77;;;;;;;22.01;100.00;100757.78;2082396;28;20271;-66
2023/07/20 01:38:37;;;;;;;7.43;1.80;;;;;;;22.41;100.00;100828.00;2082449;28;20177;-66
2023/07/20 01:39:38;;;;;;;6.87;1.80;;;;;;;22.14;100.00;100775.03;2082541;28;20183;-66
2023/07/20 01:40:40;;;;;;;5.50;1.97;;;;;;;22.07;100.00;100761.44;2082522;28;20181;-66
2023/07/20 01:41:42;;;;;;;7.87;2.20;;;;;;;22.44;100.00;100824.19;2082503;28;20177;-66
2023/07/20 01:42:48;;;;;;;5.90;1.70;;;;;;;22.46;100.00;100818.03;2082484;28;20179;-66
2023/07/20 01:43:49;;;;;;;12.03;1.87;;;;;;;22.49;100.00;100825.47;2082517;28;20173;-66
2023/07/20 01:44:53;;;;;;;6.17;2.03;;;;;;;22.47;100.00;100820.34;2082293;28;20261;-66
2023/07/20 01:45:53;;;;;;;10.70;1.80;;;;;;;22.32;100.00;100802.78;2082509;28;20168;-66
2023/07/20 01:46:54;;;;;;;10.17;2.33;;;;;;;21.80;100.00;100733.09;2082442;28;20172;-66
2023/07/20 01:47:54;;;;;;;6.83;1.80;;;;;;;22.43;100.00;100825.44;2082507;28;20255;-66
2023/07/20 01:48:55;;;;;;;4.80;1.70;;;;;;;22.43;100.00;100819.78;2082446;28;20616;-66
2023/07/20 01:49:55;;;;;;;7.53;2.30;;;;;;;22.41;100.00;100827.25;2082460;28;20267;-66
2023/07/20 01:50:56;;;;;;;7.07;1.80;;;;;;;22.39;100.00;100822.09;2082530;28;20248;-66
2023/07/20 01:51:56;;;;;;;5.10;1.97;;;;;;;22.42;100.00;100820.31;2081738;28;20181;-66
2023/07/20 01:52:56;;;;;;;5.27;1.80;;;;;;;22.39;100.00;100821.31;2081720;28;20170;-66
2023/07/20 01:53:57;;;;;;;7.53;2.03;;;;;;;22.36;100.00;100823.09;2090059;28;20169;-66
2023/07/20 01:54:57;;;;;;;6.13;2.17;;;;;;;22.37;100.00;100815.41;2082490;28;20173;-66
2023/07/20 01:55:58;;;;;;;7.23;1.80;;;;;;;22.39;100.00;100822.09;2082418;28;20635;-66
2023/07/20 01:56:58;;;;;;;6.37;2.07;;;;;;;22.36;100.00;100823.09;2082270;28;20247;-66
2023/07/20 01:58:00;;;;;;;7.83;2.00;;;;;;;22.39;100.00;100827.75;2082381;28;20602;-66
2023/07/20 01:59:01;;;;;;;5.80;1.77;;;;;;;21.43;100.00;100675.97;2082454;28;20252;-66
2023/07/20 02:00:01;;;;;;;8.97;2.03;;;;;;;22.42;100.00;100823.88;2082382;28;20169;-66
2023/07/20 02:01:02;;;;;;;8.53;2.77;;;;;;;22.45;100.00;100822.13;2082371;28;20251;-67
2023/07/20 02:02:03;;;;;;;8.20;2.17;;;;;;;22.45;100.00;100825.72;2082260;28;20173;-66
2023/07/20 02:03:04;;;;;;;8.50;2.43;;;;;;;22.50;100.00;100827.78;2082309;28;20179;-66
2023/07/20 02:04:04;;;;;;;7.23;2.10;;;;;;;22.50;100.00;100824.19;2082321;28;20215;-67
2023/07/20 02:05:05;;;;;;;9.17;2.43;;;;;;;22.54;100.00;100824.72;2082347;28;20243;-66
2023/07/20 02:06:05;;;;;;;9.00;2.30;;;;;;;22.53;100.00;100820.34;2082323;28;20571;-66
2023/07/20 02:07:06;;;;;;;6.77;2.00;;;;;;;22.57;100.00;100820.88;2082256;28;20430;-66
2023/07/20 02:08:06;;;;;;;9.77;1.90;;;;;;;22.58;100.00;100826.03;2082277;28;20173;-66
2023/07/20 02:09:07;;;;;;;6.30;2.33;;;;;;;22.55;100.00;100821.38;2082284;28;20227;-66
2023/07/20 02:10:07;;;;;;;7.67;1.73;;;;;;;22.56;100.00;100814.44;2082267;28;20252;-66
2023/07/20 02:11:09;;;;;;;9.90;2.20;;;;;;;22.50;100.00;100810.84;2082280;28;20251;-66
2023/07/20 02:12:10;;;;;;;8.90;2.13;;;;;;;22.49;100.00;100817.78;2082263;28;20166;-66
2023/07/20 02:13:10;;;;;;;5.87;2.10;;;;;;;22.51;100.00;100812.38;2082349;28;20197;-66
2023/07/20 02:14:11;;;;;;;6.00;2.10;;;;;;;22.25;100.00;100786.38;2082075;28;20663;-66
2023/07/20 02:15:13;;;;;;;7.13;2.07;;;;;;;22.42;100.00;100821.06;2082154;28;20173;-66
2023/07/20 02:16:13;;;;;;;6.23;2.10;;;;;;;22.45;100.00;100820.06;2074581;28;20343;-66
2023/07/20 02:17:13;;;;;;;8.23;2.10;;;;;;;22.47;100.00;100820.34;2073968;28;20206;-66
2023/07/20 02:18:14;;;;;;;6.67;2.13;;;;;;;22.47;100.00;100819.56;2074040;28;20212;-66
2023/07/20 02:19:14;;;;;;;7.73;2.10;;;;;;;22.47;100.00;100814.69;2073973;28;20244;-66
2023/07/20 02:20:15;;;;;;;7.67;1.83;;;;;;;22.28;100.00;100787.41;2074002;28;20185;-66
2023/07/20 02:21:15;;;;;;;8.73;2.10;;;;;;;22.42;100.00;100815.41;2074011;28;20205;-66
2023/07/20 02:22:16;;;;;;;6.20;2.30;;;;;;;22.38;100.00;100811.28;2074027;28;20249;-66
2023/07/20 02:23:17;;;;;;;8.10;2.40;;;;;;;22.38;100.00;100814.13;2073928;28;20177;-66
2023/07/20 02:24:18;;;;;;;8.17;2.60;;;;;;;22.05;100.00;100763.22;2073756;28;20482;-66
2023/07/20 02:25:18;;;;;;;11.43;2.33;;;;;;;21.76;100.00;100710.00;2073960;28;20568;-66
2023/07/20 02:26:19;;;;;;;4.60;2.00;;;;;;;22.43;100.00;100819.00;2073239;28;20173;-66
2023/07/20 02:27:19;;;;;;;4.97;1.87;;;;;;;22.38;100.00;100811.28;2073341;28;20711;-66
2023/07/20 02:28:20;;;;;;;11.90;2.40;;;;;;;22.31;100.00;100809.72;2073904;28;20170;-66
2023/07/20 02:29:20;;;;;;;9.37;2.33;;;;;;;22.27;100.00;100809.19;2073878;28;20696;-66
2023/07/20 02:30:20;;;;;;;4.50;1.70;;;;;;;22.30;100.00;100813.06;2074044;28;20181;-66
2023/07/20 02:31:21;;;;;;;10.53;2.30;;;;;;;22.28;100.00;100816.41;2073941;28;20178;-66
2023/07/20 02:32:21;;;;;;;7.47;1.83;;;;;;;22.29;100.00;100815.13;2073952;28;20174;-66
2023/07/20 02:33:22;;;;;;;11.23;2.13;;;;;;;21.83;100.00;100746.97;2073886;28;20700;-66
2023/07/20 02:34:22;;;;;;;8.47;2.40;;;;;;;22.15;100.00;100804.81;2073932;28;20181;-66
2023/07/20 02:35:23;;;;;;;10.23;2.47;;;;;;;22.28;100.00;100824.88;2073828;28;20181;-66
2023/07/20 02:36:23;;;;;;;7.13;2.23;;;;;;;22.30;100.00;100824.34;2073758;28;20182;-66
2023/07/20 02:37:24;;;;;;;7.70;2.00;;;;;;;22.12;100.00;100811.47;2073723;28;20204;-66
2023/07/20 02:38:24;;;;;;;8.90;2.40;;;;;;;21.99;100.00;100779.34;2073778;28;20169;-66
2023/07/20 02:39:27;;;;;;;10.60;2.70;;;;;;;22.26;100.00;100823.84;2074036;28;20675;-66
2023/07/20 02:40:27;;;;;;;9.93;2.50;;;;;;;21.88;100.00;100776.47;2073885;28;20169;-66
2023/07/20 02:41:28;;;;;;;10.43;2.20;;;;;;;22.21;100.00;100842.28;2073834;28;20170;-66
2023/07/20 02:42:28;;;;;;;8.87;2.20;;;;;;;22.20;100.00;100823.03;2073778;28;20176;-66
2023/07/20 02:43:29;;;;;;;10.50;2.30;;;;;;;22.18;100.00;100822.78;2078783;28;20199;-66
2023/07/20 02:44:30;;;;;;;7.27;2.23;;;;;;;22.23;100.00;100816.38;2081941;28;20660;-66
2023/07/20 02:45:30;;;;;;;9.83;2.00;;;;;;;22.21;100.00;100816.13;2081814;28;20225;-66
2023/07/20 02:46:31;;;;;;;9.93;2.43;;;;;;;22.19;100.00;100810.19;2082055;28;20207;-66
2023/07/20 02:47:31;;;;;;;10.13;2.53;;;;;;;22.23;100.00;100824.84;2081442;28;20169;-66
2023/07/20 02:48:32;;;;;;;7.47;2.00;;;;;;;22.17;100.00;100795.84;2073802;28;20189;-66
2023/07/20 02:49:32;;;;;;;6.70;1.93;;;;;;;21.96;100.00;100769.81;2081375;28;20204;-66
2023/07/20 02:50:32;;;;;;;7.50;2.07;;;;;;;22.21;100.00;100816.13;2081984;28;20264;-66
2023/07/20 02:51:33;;;;;;;6.43;1.90;;;;;;;22.04;100.00;100798.34;2081950;28;20212;-67
2023/07/20 02:52:33;;;;;;;9.27;2.20;;;;;;;22.06;100.00;100807.09;2081963;28;20662;-66
2023/07/20 02:53:34;;;;;;;5.27;2.07;;;;;;;22.11;100.00;100814.81;2082013;28;20180;-66
2023/07/20 02:54:34;;;;;;;6.37;2.10;;;;;;;22.12;100.00;100819.16;2081865;28;20177;-66
2023/07/20 02:55:35;;;;;;;6.20;1.90;;;;;;;22.11;100.00;100815.56;2081855;28;20263;-66
2023/07/20 02:56:35;;;;;;;7.93;2.70;;;;;;;22.07;100.00;100812.22;2081884;28;20178;-66
2023/07/20 02:57:35;;;;;;;6.00;2.00;;;;;;;22.12;100.00;100816.34;2081561;28;20209;-66
2023/07/20 02:58:43;;;;;;;5.43;2.10;;;;;;;22.14;100.00;100817.38;2075253;28;20273;-66
2023/07/20 02:59:43;;;;;;;7.53;2.07;;;;;;;22.17;100.00;100819.19;2073097;28;20204;-66
2023/07/20 03:00:44;;;;;;;5.07;1.77;;;;;;;22.14;100.00;100817.38;2073130;28;20732;-66
2023/07/20 03:01:44;;;;;;;7.90;2.53;;;;;;;22.16;100.00;100825.34;2079226;28;20706;-66
2023/07/20 03:02:52;;;;;;;7.33;2.30;;;;;;;22.14;100.00;100831.50;2089997;28;20237;-66
2023/07/20 03:03:53;;;;;;;9.27;2.57;;;;;;;22.14;100.00;100833.53;2090077;28;20248;-66
2023/07/20 03:04:54;;;;;;;6.17;2.20;;;;;;;22.12;100.00;100839.72;2090108;28;20183;-66
2023/07/20 03:05:55;;;;;;;9.53;2.60;;;;;;;22.10;100.00;100839.41;2090024;28;20175;-66
2023/07/20 03:06:56;;;;;;;6.00;3.00;;;;;;;22.12;100.00;100827.63;2083040;28;20200;-66
2023/07/20 03:07:56;;;;;;;7.50;2.40;;;;;;;22.10;100.00;100828.13;2081794;28;20238;-66
2023/07/20 03:08:57;;;;;;;10.03;2.90;;;;;;;22.12;100.00;100828.41;2081825;28;20184;-66
2023/07/20 03:09:58;;;;;;;8.20;2.70;;;;;;;22.09;100.00;100831.44;2081814;28;20169;-66
2023/07/20 03:10:59;;;;;;;9.90;2.77;;;;;;;22.03;100.00;100819.38;2081738;28;20248;-67
2023/07/20 03:11:59;;;;;;;7.43;2.70;;;;;;;22.04;100.00;100838.63;2081723;28;20169;-66
2023/07/20 03:12:59;;;;;;;9.47;2.40;;;;;;;21.85;100.00;100814.94;2081739;28;20177;-66
2023/07/20 03:14:00;;;;;;;8.63;2.40;;;;;;;21.99;100.00;100833.72;2081818;28;20647;-66
2023/07/20 03:15:02;;;;;;;11.40;2.60;;;;;;;21.01;100.00;100682.41;2081761;28;20180;-66
2023/07/20 03:16:03;;;;;;;13.27;2.40;;;;;;;22.01;100.00;100833.22;2084551;28;20290;-66
2023/07/20 03:17:04;;;;;;;7.47;2.57;;;;;;;21.97;100.00;100827.84;2090048;28;20651;-66
2023/07/20 03:18:04;;;;;;;9.53;2.30;;;;;;;21.98;100.00;100832.19;2090005;28;20600;-66
2023/07/20 03:19:05;;;;;;;7.80;2.30;;;;;;;21.99;100.00;100824.47;2089938;28;20181;-66
2023/07/20 03:20:09;;;;;;;7.00;2.30;;;;;;;21.98;100.00;100818.09;2082486;28;20197;-66
2023/07/20 03:21:13;;;;;;;6.80;2.80;;;;;;;21.97;100.00;100819.38;2081763;28;20176;-66
2023/07/20 03:22:13;;;;;;;7.77;2.43;;;;;;;21.97;100.00;100818.59;2081800;28;20188;-66
2023/07/20 03:23:15;;;;;;;10.90;2.60;;;;;;;21.96;100.00;100817.81;2081770;28;20181;-66
2023/07/20 03:24:16;;;;;;;7.63;2.50;;;;;;;22.01;100.00;100822.69;2081009;28;20268;-66
2023/07/20 03:25:17;;;;;;;6.63;2.10;;;;;;;22.02;100.00;100824.25;2072802;28;20232;-66
2023/07/20 03:26:17;;;;;;;7.30;2.30;;;;;;;21.92;100.00;100819.31;2081126;28;20181;-66
2023/07/20 03:27:18;;;;;;;5.37;2.10;;;;;;;21.98;100.00;100832.19;2073606;28;20417;-66
2023/07/20 03:28:19;;;;;;;4.53;1.90;;;;;;;21.96;100.00;100833.97;2079236;28;20569;-66
2023/07/20 03:29:19;;;;;;;12.70;2.33;;;;;;;22.03;100.00;100841.94;2081033;28;20188;-66
2023/07/20 03:30:20;;;;;;;9.10;2.27;;;;;;;22.05;100.00;100845.06;2081147;28;20220;-66
2023/07/20 03:31:20;;;;;;;7.13;2.80;;;;;;;22.03;100.00;100842.72;2081634;28;20231;-66
2023/07/20 03:32:20;;;;;;;8.97;2.37;;;;;;;22.04;100.00;100840.66;2081672;28;20631;-66
2023/07/20 03:33:29;;;;;;;13.77;2.60;;;;;;;22.07;100.00;100848.13;2089137;28;20630;-66
2023/07/20 03:34:29;;;;;;;8.23;2.37;;;;;;;22.03;100.00;100836.31;2089886;28;20264;-65
2023/07/20 03:35:31;;;;;;;8.43;2.50;;;;;;;22.07;100.00;100840.44;2089626;28;20481;-66
2023/07/20 03:36:31;;;;;;;7.47;2.10;;;;;;;22.11;100.00;100837.38;2084560;28;20185;-66
2023/07/20 03:37:31;;;;;;;8.03;2.40;;;;;;;22.09;100.00;100842.75;2081612;28;20224;-66
2023/07/20 03:38:32;;;;;;;8.37;2.20;;;;;;;22.12;100.00;100847.38;2081624;28;20181;-66
2023/07/20 03:39:33;;;;;;;8.40;2.73;;;;;;;22.14;100.00;100836.34;2081533;28;20200;-66
2023/07/20 03:40:33;;;;;;;6.33;2.20;;;;;;;22.16;100.00;100847.94;2081586;28;20188;-66
2023/07/20 03:41:33;;;;;;;12.67;2.40;;;;;;;22.10;100.00;100838.66;2081596;28;20177;-66
2023/07/20 03:42:34;;;;;;;9.53;2.40;;;;;;;22.12;100.00;100830.44;2081571;28;20199;-65
2023/07/20 03:43:34;;;;;;;8.47;2.23;;;;;;;22.18;100.00;100848.97;2081624;28;20672;-66
2023/07/20 03:44:35;;;;;;;9.37;2.40;;;;;;;22.20;100.00;100840.75;2081615;28;20205;-66
2023/07/20 03:45:35;;;;;;;11.93;2.50;;;;;;;22.24;100.00;100841.28;2081402;28;20307;-66
2023/07/20 03:46:35;;;;;;;11.60;2.73;;;;;;;22.19;100.00;100833.56;2081504;28;20184;-66
2023/07/20 03:47:36;;;;;;;11.27;3.10;;;;;;;22.28;100.00;100838.22;2081559;28;20177;-66
2023/07/20 03:48:36;;;;;;;6.93;2.40;;;;;;;22.32;100.00;100833.84;2081566;28;20256;-66
2023/07/20 03:49:37;;;;;;;9.77;2.53;;;;;;;22.34;100.00;100834.13;2081689;28;20207;-66
2023/07/20 03:50:38;;;;;;;8.70;2.70;;;;;;;22.34;100.00;100830.53;2081506;28;20533;-66
2023/07/20 03:51:38;;;;;;;8.60;2.50;;;;;;;22.33;100.00;100831.81;2081600;28;20200;-66
2023/07/20 03:52:39;;;;;;;8.70;2.50;;;;;;;22.33;100.00;100824.13;2081611;28;20169;-66
2023/07/20 03:53:39;;;;;;;6.47;2.60;;;;;;;21.94;100.00;100765.97;2081553;28;20184;-66
2023/07/20 03:54:40;;;;;;;9.10;2.33;;;;;;;22.39;100.00;100841.84;2081463;28;20173;-66
2023/07/20 03:55:41;;;;;;;7.43;2.30;;;;;;;22.41;100.00;100830.81;2081588;28;20538;-66
2023/07/20 03:56:42;;;;;;;13.07;2.93;;;;;;;22.42;100.00;100838.00;2080874;28;20177;-66
2023/07/20 03:57:42;;;;;;;8.10;2.23;;;;;;;22.46;100.00;100846.28;2080904;28;20189;-66
2023/07/20 03:58:43;;;;;;;9.37;2.83;;;;;;;22.47;100.00;100836.53;2081586;28;20181;-66
2023/07/20 03:59:48;;;;;;;6.90;2.53;;;;;;;22.45;100.00;100831.38;2081351;28;20185;-66
2023/07/20 04:00:50;;;;;;;7.93;2.30;;;;;;;22.52;100.00;100841.41;2081249;28;20173;-66
2023/07/20 04:01:51;;;;;;;9.33;2.50;;;;;;;22.19;100.00;100784.78;2081344;28;20173;-66
2023/07/20 04:02:51;;;;;;;10.73;2.63;;;;;;;22.60;100.00;100840.41;2081483;28;20188;-66
2023/07/20 04:03:51;;;;;;;11.77;2.90;;;;;;;22.58;100.00;100839.38;2081519;28;20655;-66
2023/07/20 04:04:52;;;;;;;15.23;2.63;;;;;;;22.65;100.00;100848.13;2081614;28;20181;-66
2023/07/20 04:05:55;;;;;;;15.93;2.83;;;;;;;22.69;100.00;100845.81;2081518;28;20256;-66
2023/07/20 04:06:55;;;;;;;15.10;2.93;;;;;;;22.73;100.00;100843.50;2088063;28;20274;-66
2023/07/20 04:07:56;;;;;;;12.00;2.40;;;;;;;22.74;100.00;100841.47;2089669;28;20723;-65
2023/07/20 04:08:56;;;;;;;8.23;2.77;;;;;;;22.76;100.00;100831.19;2089696;28;20615;-66
2023/07/20 04:09:57;;;;;;;10.90;2.40;;;;;;;22.81;100.00;100840.94;2089699;28;20176;-66
2023/07/20 04:10:57;;;;;;;7.33;2.53;;;;;;;22.84;100.00;100842.75;2088523;28;20192;-66
2023/07/20 04:11:57;;;;;;;9.37;2.83;;;;;;;22.82;100.00;100834.78;2081490;28;20176;-66
2023/07/20 04:12:58;;;;;;;8.37;2.67;;;;;;;22.84;100.00;100832.25;2081467;28;20187;-65
2023/07/20 04:13:58;;;;;;;8.63;2.43;;;;;;;22.84;100.00;100832.25;2081433;28;20169;-66
2023/07/20 04:14:59;;;;;;;8.57;2.63;;;;;;;22.55;100.00;100789.53;2085571;28;20669;-66
2023/07/20 04:16:00;;;;;;;7.63;2.93;;;;;;;22.86;100.00;100832.50;2089658;28;20173;-66
2023/07/20 04:17:00;;;;;;;6.20;2.70;;;;;;;22.90;100.00;100833.00;2089611;28;20177;-65
2023/07/20 04:18:00;;;;;;;7.10;3.03;;;;;;;22.91;100.00;100834.56;2089501;28;20161;-66
2023/07/20 04:19:01;;;;;;;6.87;2.60;;;;;;;22.95;100.00;100834.28;2081292;28;20196;-66
2023/07/20 04:20:02;;;;;;;7.20;2.70;;;;;;;22.96;100.00;100830.97;2081373;28;20661;-66
2023/07/20 04:21:02;;;;;;;8.57;2.53;;;;;;;22.99;100.00;100826.34;2081425;28;20177;-66
2023/07/20 04:22:03;;;;;;;11.27;3.33;;;;;;;22.98;100.00;100828.38;2077035;28;20213;-66
2023/07/20 04:23:03;;;;;;;9.13;3.53;;;;;;;23.00;100.00;100825.81;2073223;28;20178;-66
2023/07/20 04:24:04;;;;;;;7.00;3.10;;;;;;;23.04;100.00;100819.91;2073272;28;20261;-66
2023/07/20 04:25:05;;;;;;;9.80;3.23;;;;;;;23.07;100.00;100830.19;2073192;28;20173;-65
2023/07/20 04:26:06;;;;;;;7.73;2.83;;;;;;;23.08;100.00;100837.41;2073295;28;20166;-66
2023/07/20 04:27:07;;;;;;;6.93;3.00;;;;;;;23.10;100.00;100832.78;2073193;28;20174;-66
2023/07/20 04:28:10;;;;;;;6.43;3.10;;;;;;;23.08;100.00;100832.50;2077300;28;20169;-66
2023/07/20 04:29:10;;;;;;;7.50;2.80;;;;;;;23.09;100.00;100827.63;2081279;28;20208;-66
2023/07/20 04:30:12;;;;;;;8.23;2.90;;;;;;;23.12;100.00;100824.53;2081380;28;20173;-66
2023/07/20 04:31:14;;;;;;;7.07;2.90;;;;;;;23.15;100.00;100826.34;2088922;28;20203;-66
2023/07/20 04:32:15;;;;;;;7.40;3.00;;;;;;;23.15;100.00;100819.91;2088791;28;20172;-65
2023/07/20 04:33:16;;;;;;;6.87;2.90;;;;;;;23.13;100.00;100817.59;2088903;28;20185;-66
2023/07/20 04:34:17;;;;;;;8.13;3.00;;;;;;;;;;2089638;28;20168;-65
2023/07/20 04:35:38;;;;;;;9.77;2.73;;;;;;;23.21;100.00;100826.38;2084034;28;20658;-65
2023/07/20 04:36:39;;;;;;;7.97;2.57;;;;;;;23.23;100.00;100833.03;2081295;28;20173;-66
2023/07/20 04:37:45;;;;;;;7.00;2.80;;;;;;;23.21;100.00;100826.38;2085927;28;20285;-66
2023/07/20 04:38:46;;;;;;;7.30;2.60;;;;;;;23.25;100.00;100830.50;2084787;28;20224;-66
2023/07/20 04:39:47;;;;;;;5.93;2.70;;;;;;;23.27;100.00;100833.56;2080919;28;20215;-65
2023/07/20 04:40:49;;;;;;;8.80;2.90;;;;;;;22.82;100.00;100758.50;2081037;28;20177;-65
2023/07/20 04:41:49;;;;;;;9.60;3.00;;;;;;;23.32;100.00;100827.13;2081216;28;20203;-65
2023/07/20 04:42:50;;;;;;;8.50;2.60;;;;;;;23.36;100.00;100836.13;2081118;28;20169;-65
2023/07/20 04:43:50;;;;;;;7.47;2.40;;;;;;;23.39;100.00;100840.00;2081095;28;20258;-65
2023/07/20 04:44:50;;;;;;;9.70;2.67;;;;;;;23.44;100.00;100836.38;2080880;28;20200;-65